Aviation Digital Data Service (ADDS)

Output produced by METARs form (0831 UTC 23 November 2014)
found at http://aviationweather.gov/adds/metars/
 
KALB 230520Z 2306/2406 16007KT P6SM -RA OVC035 
     TEMPO 2306/2310 4SM -RAPL BR OVC025 
     FM231400 20009KT P6SM SCT025 OVC040 
     FM231800 19008KT P6SM BKN040